Avalon, Mississippi
Current Conditions -  °F | °C
As of 5:53 AM on Wednesday 28 Jan 2015 (Local Time) from KGWO Reporting Station
Clear Clear  
Wind Chill: 34°   Ceiling: Unl
Heat Index: 38°   Visibility: 10mi
Dew Point: 32°   Wind: 5mph
Humidity: 79%   Direction: 110°ESE
Pressure: 30.25"   Gusts: NA
Location:  33.65°N, 90.09°W
Report Text: KGWO 281153Z AUTO 11004KT 10SM CLR 03/00 A3025 RMK AO2 SLP242 T00330000 10067 20006 51013
Loading
Personal Weather Stations






























Interactive Weather Map New forecast layout! Learn more

10-Day Weather Forecast

Advertisements
Track Severe Weather on mobile